• Join FlightAware (Why Join?)
  • Login
  • US Flag 
12:19PM EDT


 

Airport Tracker/Info


-or-


 

Live Flight TrackerFlight Track Log ✈ SWA1969 ✈ 12-Apr-2013 ✈ KMDW - KMHT

Flight Track Log - Related Links

Times and Time Zones

All times are in EDT time to prevent confusion due to time zone crossing. See the SWA1969 flight status page for this flight to view local times or setup timezone preferences in your user account.

Time Position Orientation Groundspeed Altitude Reporting Facility
EDT Latitude Longitude Course Direction KTS MPH feet Rate Location/Type
11:13AM 41.8150 -87.7694 90° East 174 200 2,300  Level Chicago Center
11:14AM 41.8261 -87.6936 79° East 256 295 4,000 1,860 Climbing Chicago Center
11:16AM 41.8161 -87.6042 99° East 245 282 6,200 2,580 Climbing Chicago Center
11:17AM 41.8058 -87.5047 98° East 260 299 9,300 2,880 Climbing Chicago Center
11:18AM 41.7944 -87.3892 97° East 305 351 12,200 2,520 Climbing Chicago Center
11:19AM 41.7500 -86.9470 90° East  Level FlightAware Approximate
11:19AM 41.7811 -87.2564 98° East 348 400 14,500  Level Chicago Center
11:20AM 41.7636 -87.0842 98° East 384 442 18,300 3,120 Climbing Chicago Center
11:21AM 41.7625 -86.9294 91° East 409 471 21,000 2,700 Climbing Chicago Center
11:22AM 41.7631 -86.7714 90° East 423 487 23,900 2,400 Climbing Chicago Center
11:23AM 41.7647 -86.6025 89° East 429 494 26,000 1,860 Climbing Chicago Center
11:24AM 41.7656 -86.4328 90° East 449 517 27,800 1,680 Climbing Chicago Center
11:25AM 41.7775 -86.2575 85° East 469 540 29,500 1,680 Climbing Chicago Center
11:26AM 41.8094 -86.0803 76° East 485 558 31,300 1,560 Climbing Chicago Center
11:27AM 41.8389 -85.9014 77° East 489 563 32,800 1,380 Climbing Chicago Center
11:28AM 41.8703 -85.7183 77° East 496 571 34,200 1,260 Climbing Chicago Center
11:29AM 41.9019 -85.5336 77° East 501 577 35,400 1,140 Climbing Chicago Center
11:30AM 41.9336 -85.3447 77° East 509 586 36,600 1,020 Climbing Chicago Center
11:31AM 41.9536 -85.1547 82° East 513 590 37,500 900 Climbing Chicago Center
11:31AM 41.9531 -85.0789 91° East 508 585 37,900 1,080 Climbing Cleveland Center
11:32AM 41.9522 -84.8861 90° East 508 585 39,000 540 Climbing Cleveland Center
11:33AM 41.9486 -84.6989 91° East 508 585 39,000  Level Cleveland Center
11:34AM 41.9469 -84.5117 91° East 508 585 39,000  Level Cleveland Center
11:35AM 41.9469 -84.3244 90° East 502 578 39,000  Level Cleveland Center
11:36AM 41.9511 -84.1264 88° East 494 568 39,000  Level Cleveland Center
11:37AM 41.9756 -83.9378 80° East 496 571 39,000  Level Cleveland Center
11:38AM 41.9972 -83.7600 81° East 496 571 39,000  Level Cleveland Center
11:39AM 42.0189 -83.5767 81° East 501 577 39,000  Level Cleveland Center
11:40AM 42.0400 -83.3958 81° East 501 577 39,000  Level Cleveland Center
11:41AM 42.0586 -83.2317 81° East 501 577 39,000  Level Cleveland Center
11:42AM 42.0797 -83.0311 82° East 501 577 39,000  Level Cleveland Center
11:43AM 42.1022 -82.8472 81° East 501 577 39,000  Level Cleveland Center
11:44AM 42.1225 -82.6603 82° East 501 577 39,000  Level Cleveland Center
11:45AM 42.1444 -82.4819 81° East 493 567 39,000  Level Cleveland Center
11:46AM 42.1597 -82.2975 84° East 493 567 39,000  Level Cleveland Center
11:47AM 42.1831 -82.1186 80° East 493 567 39,000  Level Cleveland Center
11:48AM 42.2000 -81.9342 83° East 488 562 39,000  Level Cleveland Center
11:49AM 42.2208 -81.7522 81° East 493 567 39,000  Level Cleveland Center
11:50AM 42.2392 -81.5703 82° East 493 567 39,000  Level Cleveland Center
11:51AM 42.2572 -81.3883 82° East 493 567 39,000  Level Cleveland Center
11:52AM 42.2750 -81.2089 82° East 488 562 39,000  Level Cleveland Center
11:53AM 42.2925 -81.0239 83° East 483 556 39,000  Level Cleveland Center
11:54AM 42.3097 -80.8583 82° East 489 563 39,000  Level Cleveland Center
11:55AM 42.3247 -80.6731 84° East 494 568 39,000  Level Cleveland Center
11:56AM 42.3433 -80.4878 82° East 494 568 39,000  Level Cleveland Center
11:57AM 42.3578 -80.2994 84° East 506 582 39,000  Level Cleveland Center
11:58AM 42.3739 -80.1167 83° East 500 575 39,000  Level Cleveland Center
11:59AM 42.3917 -79.9311 83° East 500 575 39,000  Level Cleveland Center
12:00PM 42.4072 -79.7481 83° East 500 575 39,000  Level Cleveland Center
12:01PM 42.4203 -79.5594 85° East 500 575 39,000  Level Cleveland Center
12:02PM 42.4372 -79.3733 83° East 500 575 39,000  Level Cleveland Center
12:03PM 42.4519 -79.1931 84° East 500 575 39,000  Level Cleveland Center
12:04PM 42.4700 -78.9872 83° East 495 570 39,000  Level Cleveland Center
12:05PM 42.4819 -78.8039 85° East 495 570 39,000  Level Cleveland Center
12:06PM 42.4956 -78.6206 84° East 495 570 39,000  Level Cleveland Center
12:07PM 42.5089 -78.4342 84° East 495 570 39,000  Level Cleveland Center
12:08PM 42.5219 -78.2478 85° East 500 575 39,000  Level Cleveland Center
12:09PM 42.5347 -78.0642 85° East 500 575 39,000  Level Cleveland Center
12:10PM 42.5475 -77.8803 85° East 500 575 39,000  Level Cleveland Center
12:11PM 42.5558 -77.7108 86° East 500 575 39,000  Level Cleveland Center
12:13PM 42.5842 -77.2969 85° East 525 604 39,000  Level Boston Center
12:15PM 42.5947 -77.1481 84° East 503 579 39,000  Level Boston Center
12:15PM 42.6078 -76.9289 85° East 490 564 39,000  Level Boston Center
12:16PM 42.6167 -76.7489 86° East 490 564 39,000  Level Boston Center
12:18PM 42.6278 -76.5661 85° East 485 558 39,000  Level Boston Center
12:18PM 42.6383 -76.3833 85° East 480 552 39,000  Level Boston Center
12:19PM 42.6492 -76.1864 86° East 475 547 39,000  Level Boston Center
12:20PM 42.6594 -76.0006 86° East 480 552 39,000  Level Boston Center
12:21PM 42.6692 -75.8175 86° East 480 552 39,000  Level Boston Center
12:22PM 42.6764 -75.6400 87° East 480 552 39,000  Level Boston Center
12:24PM 42.6836 -75.4539 87° East 475 547 39,000 -1,020 Level Boston Center
12:25PM 42.6922 -75.2736 86° East 480 552 37,000 -2,280 Descending Boston Center
12:26PM 42.7008 -75.0903 86° East 480 552 34,500 -2,340 Descending Boston Center
12:26PM 42.7050 -74.9067 88° East 480 552 32,400 -2,160 Descending Boston Center
12:27PM 42.7128 -74.7347 86° East 474 545 30,400 -1,740 Descending Boston Center
12:28PM 42.7203 -74.5625 87° East 466 536 29,000 -780 Descending Boston Center
12:29PM 42.7253 -74.3986 88° East 442 509 28,900 -600 Descending Boston Center
12:30PM 42.7322 -74.2322 87° East 437 503 27,900 -1,020 Descending Boston Center
12:32PM 42.7411 -74.0656 86° East 437 503 26,900 -1,020 Descending Boston Center
12:33PM 42.7453 -73.9017 88° East 437 503 25,900 -1,020 Descending Boston Center
12:33PM 42.7472 -73.7436 89° East 432 497 24,900 -960 Descending Boston Center
12:34PM 42.7572 -73.5994 85° East 432 497 24,100 -960 Descending Boston Center
12:36PM 42.7606 -73.4722 88° East 427 491 23,000 -600 Descending Boston Center
12:37PM 42.7683 -73.2886 87° East 408 470 23,000  Level Boston Center
12:38PM 42.7756 -73.1331 86° East 403 464 23,000 -60 Level Boston Center
12:39PM 42.7828 -72.9606 87° East 409 471 22,900 -1,680 Descending Boston Center
12:39PM 42.7875 -72.8136 87° East 397 457 19,800 -3,180 Descending Boston Center
12:40PM 42.7961 -72.6750 85° East 397 457 16,700 -2,940 Descending Boston Center
12:42PM 42.8025 -72.5053 87° East 424 488 13,800 -2,700 Descending Boston Center
12:42PM 42.8089 -72.3439 87° East 430 495 11,400 -1,980 Descending Boston Center
12:43PM 42.8128 -72.1825 88° East 409 471 10,000 -1,020 Descending Boston Center
12:44PM 42.8186 -72.0522 86° East 362 417 9,400 -720 Descending Boston Center
12:45PM 42.8222 -71.9333 88° East 326 375 8,600 -1,260 Descending Boston Center
12:46PM 42.8239 -71.8172 89° East 306 352 6,900 -1,380 Descending Boston Center
12:47PM 42.8169 -71.7128 95° East 296 341 5,900 -1,020 Descending Boston Center
12:48PM 42.8081 -71.6250 98° East 246 283 4,900 -1,020 Descending Boston Center
12:49PM 42.7969 -71.5489 101° East 217 250 3,900 -960 Descending Boston Center
12:50PM 42.7736 -71.4814 115° Southeast 197 227 3,000 -540 Descending Boston Center
12:51PM 42.7542 -71.4194 113° Southeast 184 212 2,900 -540 Descending Boston Center
12:53PM 42.7767 -71.3594 63° Northeast 163 188 2,000 -480 Descending Boston Center
12:54PM 42.8247 -71.3700 351° North 144 166 2,000 -300 Level Boston Center
12:54PM 42.8667 -71.3978 334° Northwest 157 181 1,500 -720 Descending Boston Center
12:55PM 42.9044 -71.4197 337° Northwest 152 175 700 -600 Descending Boston Center
12:56PM 42.9378 -71.4389 337° Northwest 152 175 300 4,080 Descending Boston Center
12:58PM 42.9736 -71.4667 330° Northwest 152 175 9,000 4,260 Climbing Boston Center
12:59PM 43.0114 -71.4947 331° Northwest 152 175 9,000  Level Boston Center
01:00PM 42.9328 -71.4358 154° Southeast  Level Estimated
01:07PM 42.9328 -71.4358 154° Southeast  Level Estimated
01:08PM 42.9328 -71.4358 154° Southeast  Level Estimated
01:09PM 42.9328 -71.4358 154° Southeast  Level Estimated
01:10PM 42.9328 -71.4358 154° Southeast  Level Estimated
01:11PM 42.9328 -71.4358 154° Southeast  Level Estimated
01:12PM 42.9328 -71.4358 154° Southeast  Level Estimated
01:13PM 42.9328 -71.4358 154° Southeast  Level Estimated
01:14PM 42.9328 -71.4358 154° Southeast  Level Estimated
01:15PM 42.9328 -71.4358 154° Southeast  Level Estimated